sensor_id;sensor_type;location;lat;lon;timestamp;P1;durP1;ratioP1;P2;durP2;ratioP2
83096;SDS011;72968;49.460;11.004;2023-11-22T00:02:14;7.10;;;4.25;;
83096;SDS011;72968;49.460;11.004;2023-11-22T00:04:45;13.85;;;4.68;;
83096;SDS011;72968;49.460;11.004;2023-11-22T00:07:17;7.65;;;4.20;;
83096;SDS011;72968;49.460;11.004;2023-11-22T00:09:48;8.40;;;4.72;;
83096;SDS011;72968;49.460;11.004;2023-11-22T00:12:19;6.15;;;3.72;;
83096;SDS011;72968;49.460;11.004;2023-11-22T00:14:51;7.97;;;3.90;;
83096;SDS011;72968;49.460;11.004;2023-11-22T00:17:23;6.93;;;3.85;;
83096;SDS011;72968;49.460;11.004;2023-11-22T00:19:54;5.75;;;3.45;;
83096;SDS011;72968;49.460;11.004;2023-11-22T00:22:26;7.45;;;4.03;;
83096;SDS011;72968;49.460;11.004;2023-11-22T00:24:57;7.75;;;4.43;;
83096;SDS011;72968;49.460;11.004;2023-11-22T00:27:29;7.88;;;4.22;;
83096;SDS011;72968;49.460;11.004;2023-11-22T00:30:01;5.90;;;3.40;;
83096;SDS011;72968;49.460;11.004;2023-11-22T00:32:35;8.02;;;4.65;;
83096;SDS011;72968;49.460;11.004;2023-11-22T00:35:07;7.97;;;4.20;;
83096;SDS011;72968;49.460;11.004;2023-11-22T00:37:38;6.95;;;4.63;;
83096;SDS011;72968;49.460;11.004;2023-11-22T00:40:10;7.38;;;4.22;;
83096;SDS011;72968;49.460;11.004;2023-11-22T00:42:42;7.93;;;4.57;;
83096;SDS011;72968;49.460;11.004;2023-11-22T00:45:13;6.78;;;3.75;;
83096;SDS011;72968;49.460;11.004;2023-11-22T00:47:46;7.32;;;4.20;;
83096;SDS011;72968;49.460;11.004;2023-11-22T00:50:18;6.90;;;3.90;;
83096;SDS011;72968;49.460;11.004;2023-11-22T00:52:49;6.05;;;3.60;;
83096;SDS011;72968;49.460;11.004;2023-11-22T00:55:21;6.35;;;3.72;;
83096;SDS011;72968;49.460;11.004;2023-11-22T00:57:52;6.90;;;4.10;;
83096;SDS011;72968;49.460;11.004;2023-11-22T01:00:23;5.30;;;3.28;;
83096;SDS011;72968;49.460;11.004;2023-11-22T01:02:56;6.95;;;3.95;;
83096;SDS011;72968;49.460;11.004;2023-11-22T01:05:27;8.25;;;3.92;;
83096;SDS011;72968;49.460;11.004;2023-11-22T01:07:59;5.85;;;3.22;;
83096;SDS011;72968;49.460;11.004;2023-11-22T01:10:30;7.60;;;3.30;;
83096;SDS011;72968;49.460;11.004;2023-11-22T01:13:02;6.45;;;3.25;;
83096;SDS011;72968;49.460;11.004;2023-11-22T01:15:34;6.18;;;3.20;;
83096;SDS011;72968;49.460;11.004;2023-11-22T01:18:07;5.82;;;3.03;;
83096;SDS011;72968;49.460;11.004;2023-11-22T01:20:38;4.78;;;3.22;;
83096;SDS011;72968;49.460;11.004;2023-11-22T01:23:09;6.55;;;3.17;;
83096;SDS011;72968;49.460;11.004;2023-11-22T01:25:41;5.63;;;3.38;;
83096;SDS011;72968;49.460;11.004;2023-11-22T01:28:12;6.18;;;3.33;;
83096;SDS011;72968;49.460;11.004;2023-11-22T01:30:44;6.88;;;3.65;;
83096;SDS011;72968;49.460;11.004;2023-11-22T01:33:18;6.90;;;3.33;;
83096;SDS011;72968;49.460;11.004;2023-11-22T01:35:50;6.53;;;3.20;;
83096;SDS011;72968;49.460;11.004;2023-11-22T01:38:21;6.28;;;3.15;;
83096;SDS011;72968;49.460;11.004;2023-11-22T01:40:53;6.60;;;3.55;;
83096;SDS011;72968;49.460;11.004;2023-11-22T01:43:26;6.10;;;2.92;;
83096;SDS011;72968;49.460;11.004;2023-11-22T01:45:57;6.10;;;3.30;;
83096;SDS011;72968;49.460;11.004;2023-11-22T01:48:32;5.85;;;3.10;;
83096;SDS011;72968;49.460;11.004;2023-11-22T01:51:03;5.00;;;2.85;;
83096;SDS011;72968;49.460;11.004;2023-11-22T01:53:35;5.25;;;2.92;;
83096;SDS011;72968;49.460;11.004;2023-11-22T01:56:07;6.53;;;3.88;;
83096;SDS011;72968;49.460;11.004;2023-11-22T01:58:39;7.38;;;3.13;;
83096;SDS011;72968;49.460;11.004;2023-11-22T02:01:10;6.10;;;2.85;;
83096;SDS011;72968;49.460;11.004;2023-11-22T02:03:46;6.20;;;2.88;;
83096;SDS011;72968;49.460;11.004;2023-11-22T02:06:17;8.07;;;3.63;;
83096;SDS011;72968;49.460;11.004;2023-11-22T02:08:49;6.28;;;3.08;;
83096;SDS011;72968;49.460;11.004;2023-11-22T02:11:20;6.00;;;3.17;;
83096;SDS011;72968;49.460;11.004;2023-11-22T02:13:52;5.43;;;2.80;;
83096;SDS011;72968;49.460;11.004;2023-11-22T02:16:23;7.05;;;3.25;;
83096;SDS011;72968;49.460;11.004;2023-11-22T02:18:56;6.72;;;2.92;;
83096;SDS011;72968;49.460;11.004;2023-11-22T02:21:27;5.78;;;2.45;;
83096;SDS011;72968;49.460;11.004;2023-11-22T02:24:00;8.35;;;3.60;;
83096;SDS011;72968;49.460;11.004;2023-11-22T02:26:31;5.47;;;3.00;;
83096;SDS011;72968;49.460;11.004;2023-11-22T02:29:03;5.53;;;3.22;;
83096;SDS011;72968;49.460;11.004;2023-11-22T02:31:35;5.53;;;2.65;;
83096;SDS011;72968;49.460;11.004;2023-11-22T02:34:06;6.25;;;3.03;;
83096;SDS011;72968;49.460;11.004;2023-11-22T02:36:37;7.97;;;3.67;;
83096;SDS011;72968;49.460;11.004;2023-11-22T02:39:10;5.68;;;3.05;;
83096;SDS011;72968;49.460;11.004;2023-11-22T02:41:43;6.53;;;3.55;;
83096;SDS011;72968;49.460;11.004;2023-11-22T02:44:14;5.47;;;3.17;;
83096;SDS011;72968;49.460;11.004;2023-11-22T02:46:47;5.15;;;3.03;;
83096;SDS011;72968;49.460;11.004;2023-11-22T02:49:18;7.35;;;3.90;;
83096;SDS011;72968;49.460;11.004;2023-11-22T02:51:50;6.35;;;3.38;;
83096;SDS011;72968;49.460;11.004;2023-11-22T02:54:22;6.07;;;3.05;;
83096;SDS011;72968;49.460;11.004;2023-11-22T02:56:53;5.53;;;3.55;;
83096;SDS011;72968;49.460;11.004;2023-11-22T02:59:25;5.50;;;3.13;;
83096;SDS011;72968;49.460;11.004;2023-11-22T03:01:56;6.53;;;3.00;;
83096;SDS011;72968;49.460;11.004;2023-11-22T03:04:28;9.15;;;3.63;;
83096;SDS011;72968;49.460;11.004;2023-11-22T03:06:59;5.63;;;3.33;;
83096;SDS011;72968;49.460;11.004;2023-11-22T03:09:32;6.13;;;3.17;;
83096;SDS011;72968;49.460;11.004;2023-11-22T03:12:03;7.63;;;3.70;;
83096;SDS011;72968;49.460;11.004;2023-11-22T03:14:36;7.55;;;2.90;;
83096;SDS011;72968;49.460;11.004;2023-11-22T03:17:07;3.55;;;2.15;;
83096;SDS011;72968;49.460;11.004;2023-11-22T03:19:39;5.18;;;2.75;;
83096;SDS011;72968;49.460;11.004;2023-11-22T03:22:10;5.43;;;3.03;;
83096;SDS011;72968;49.460;11.004;2023-11-22T03:24:43;4.47;;;2.60;;
83096;SDS011;72968;49.460;11.004;2023-11-22T03:27:15;6.90;;;3.42;;
83096;SDS011;72968;49.460;11.004;2023-11-22T03:29:47;5.43;;;3.17;;
83096;SDS011;72968;49.460;11.004;2023-11-22T03:32:18;4.90;;;2.80;;
83096;SDS011;72968;49.460;11.004;2023-11-22T03:34:49;5.47;;;2.83;;
83096;SDS011;72968;49.460;11.004;2023-11-22T03:37:21;6.82;;;3.05;;
83096;SDS011;72968;49.460;11.004;2023-11-22T03:39:53;6.70;;;3.22;;
83096;SDS011;72968;49.460;11.004;2023-11-22T03:42:25;5.75;;;2.97;;
83096;SDS011;72968;49.460;11.004;2023-11-22T03:44:56;6.25;;;2.80;;
83096;SDS011;72968;49.460;11.004;2023-11-22T03:47:29;9.38;;;3.00;;
83096;SDS011;72968;49.460;11.004;2023-11-22T03:50:03;6.60;;;3.22;;
83096;SDS011;72968;49.460;11.004;2023-11-22T03:52:35;5.43;;;2.85;;
83096;SDS011;72968;49.460;11.004;2023-11-22T03:55:09;8.02;;;3.85;;
83096;SDS011;72968;49.460;11.004;2023-11-22T03:57:40;7.22;;;3.25;;
83096;SDS011;72968;49.460;11.004;2023-11-22T04:00:11;6.43;;;3.17;;
83096;SDS011;72968;49.460;11.004;2023-11-22T04:02:44;5.43;;;3.08;;
83096;SDS011;72968;49.460;11.004;2023-11-22T04:05:15;4.90;;;2.65;;
83096;SDS011;72968;49.460;11.004;2023-11-22T04:07:46;5.05;;;2.88;;
83096;SDS011;72968;49.460;11.004;2023-11-22T04:10:19;4.78;;;2.42;;
83096;SDS011;72968;49.460;11.004;2023-11-22T04:12:51;6.07;;;3.05;;
83096;SDS011;72968;49.460;11.004;2023-11-22T04:15:22;6.40;;;3.78;;
83096;SDS011;72968;49.460;11.004;2023-11-22T04:17:54;6.90;;;3.10;;
83096;SDS011;72968;49.460;11.004;2023-11-22T04:20:25;5.03;;;3.33;;
83096;SDS011;72968;49.460;11.004;2023-11-22T04:22:56;7.22;;;3.58;;
83096;SDS011;72968;49.460;11.004;2023-11-22T04:25:29;4.95;;;2.95;;
83096;SDS011;72968;49.460;11.004;2023-11-22T04:28:00;5.25;;;3.35;;
83096;SDS011;72968;49.460;11.004;2023-11-22T04:30:32;5.00;;;3.20;;
83096;SDS011;72968;49.460;11.004;2023-11-22T04:33:03;7.63;;;3.53;;
83096;SDS011;72968;49.460;11.004;2023-11-22T04:35:34;7.32;;;3.60;;
83096;SDS011;72968;49.460;11.004;2023-11-22T04:38:07;5.45;;;3.38;;
83096;SDS011;72968;49.460;11.004;2023-11-22T04:40:40;5.32;;;3.28;;
83096;SDS011;72968;49.460;11.004;2023-11-22T04:43:12;5.65;;;2.78;;
83096;SDS011;72968;49.460;11.004;2023-11-22T04:45:43;8.30;;;3.78;;
83096;SDS011;72968;49.460;11.004;2023-11-22T04:48:15;7.30;;;3.28;;
83096;SDS011;72968;49.460;11.004;2023-11-22T04:50:46;7.20;;;3.72;;
83096;SDS011;72968;49.460;11.004;2023-11-22T04:53:18;7.00;;;3.83;;
83096;SDS011;72968;49.460;11.004;2023-11-22T04:55:51;6.13;;;3.65;;
83096;SDS011;72968;49.460;11.004;2023-11-22T04:58:22;5.53;;;3.33;;
83096;SDS011;72968;49.460;11.004;2023-11-22T05:00:54;7.85;;;3.50;;
83096;SDS011;72968;49.460;11.004;2023-11-22T05:03:25;7.70;;;4.10;;
83096;SDS011;72968;49.460;11.004;2023-11-22T05:05:56;6.60;;;4.03;;
83096;SDS011;72968;49.460;11.004;2023-11-22T05:08:27;5.07;;;3.17;;
83096;SDS011;72968;49.460;11.004;2023-11-22T05:11:01;6.03;;;3.60;;
83096;SDS011;72968;49.460;11.004;2023-11-22T05:13:33;7.07;;;3.80;;
83096;SDS011;72968;49.460;11.004;2023-11-22T05:16:05;6.65;;;3.58;;
83096;SDS011;72968;49.460;11.004;2023-11-22T05:18:36;6.63;;;3.58;;
83096;SDS011;72968;49.460;11.004;2023-11-22T05:21:07;6.13;;;3.67;;
83096;SDS011;72968;49.460;11.004;2023-11-22T05:23:39;7.22;;;3.72;;
83096;SDS011;72968;49.460;11.004;2023-11-22T05:26:12;8.48;;;3.47;;
83096;SDS011;72968;49.460;11.004;2023-11-22T05:28:43;10.38;;;4.25;;
83096;SDS011;72968;49.460;11.004;2023-11-22T05:31:14;7.18;;;3.97;;
83096;SDS011;72968;49.460;11.004;2023-11-22T05:33:46;7.40;;;4.30;;
83096;SDS011;72968;49.460;11.004;2023-11-22T05:36:17;7.40;;;4.30;;
83096;SDS011;72968;49.460;11.004;2023-11-22T05:38:49;4.88;;;3.22;;
83096;SDS011;72968;49.460;11.004;2023-11-22T05:41:22;7.45;;;4.07;;
83096;SDS011;72968;49.460;11.004;2023-11-22T05:43:53;8.63;;;4.65;;
83096;SDS011;72968;49.460;11.004;2023-11-22T05:46:24;8.00;;;4.07;;
83096;SDS011;72968;49.460;11.004;2023-11-22T05:48:56;6.78;;;3.60;;
83096;SDS011;72968;49.460;11.004;2023-11-22T05:51:27;9.55;;;4.40;;
83096;SDS011;72968;49.460;11.004;2023-11-22T05:53:58;9.30;;;3.67;;
83096;SDS011;72968;49.460;11.004;2023-11-22T05:56:32;10.00;;;4.30;;
83096;SDS011;72968;49.460;11.004;2023-11-22T05:59:03;9.23;;;4.78;;
83096;SDS011;72968;49.460;11.004;2023-11-22T06:01:35;8.50;;;4.32;;
83096;SDS011;72968;49.460;11.004;2023-11-22T06:04:06;9.38;;;4.72;;
83096;SDS011;72968;49.460;11.004;2023-11-22T06:06:39;8.82;;;4.88;;
83096;SDS011;72968;49.460;11.004;2023-11-22T06:09:10;9.50;;;4.35;;
83096;SDS011;72968;49.460;11.004;2023-11-22T06:11:45;6.93;;;4.03;;
83096;SDS011;72968;49.460;11.004;2023-11-22T06:14:17;9.07;;;4.60;;
83096;SDS011;72968;49.460;11.004;2023-11-22T06:16:49;9.07;;;4.15;;
83096;SDS011;72968;49.460;11.004;2023-11-22T06:19:21;7.57;;;4.32;;
83096;SDS011;72968;49.460;11.004;2023-11-22T06:21:52;8.30;;;4.30;;
83096;SDS011;72968;49.460;11.004;2023-11-22T06:24:24;11.70;;;5.18;;
83096;SDS011;72968;49.460;11.004;2023-11-22T06:26:57;10.52;;;4.75;;
83096;SDS011;72968;49.460;11.004;2023-11-22T06:29:28;12.45;;;5.22;;
83096;SDS011;72968;49.460;11.004;2023-11-22T06:32:01;10.70;;;5.35;;
83096;SDS011;72968;49.460;11.004;2023-11-22T06:34:32;9.10;;;5.10;;
83096;SDS011;72968;49.460;11.004;2023-11-22T06:37:04;9.18;;;5.32;;
83096;SDS011;72968;49.460;11.004;2023-11-22T06:39:38;11.52;;;6.20;;
83096;SDS011;72968;49.460;11.004;2023-11-22T06:42:11;11.60;;;5.78;;
83096;SDS011;72968;49.460;11.004;2023-11-22T06:44:43;13.75;;;6.57;;
83096;SDS011;72968;49.460;11.004;2023-11-22T06:47:17;13.23;;;7.05;;
83096;SDS011;72968;49.460;11.004;2023-11-22T06:49:49;9.80;;;5.50;;
83096;SDS011;72968;49.460;11.004;2023-11-22T06:52:20;11.77;;;6.80;;
83096;SDS011;72968;49.460;11.004;2023-11-22T06:54:52;10.50;;;5.50;;
83096;SDS011;72968;49.460;11.004;2023-11-22T06:57:24;10.88;;;5.95;;
83096;SDS011;72968;49.460;11.004;2023-11-22T06:59:59;11.13;;;5.93;;
83096;SDS011;72968;49.460;11.004;2023-11-22T07:02:31;13.25;;;7.13;;
83096;SDS011;72968;49.460;11.004;2023-11-22T07:05:02;12.63;;;6.30;;
83096;SDS011;72968;49.460;11.004;2023-11-22T07:07:36;12.18;;;6.25;;
83096;SDS011;72968;49.460;11.004;2023-11-22T07:10:08;14.27;;;7.72;;
83096;SDS011;72968;49.460;11.004;2023-11-22T07:12:42;11.07;;;6.07;;
83096;SDS011;72968;49.460;11.004;2023-11-22T07:15:14;10.80;;;5.20;;
83096;SDS011;72968;49.460;11.004;2023-11-22T07:17:45;10.05;;;5.47;;
83096;SDS011;72968;49.460;11.004;2023-11-22T07:20:17;9.07;;;4.60;;
83096;SDS011;72968;49.460;11.004;2023-11-22T07:22:49;12.65;;;5.28;;
83096;SDS011;72968;49.460;11.004;2023-11-22T07:25:25;14.20;;;7.55;;
83096;SDS011;72968;49.460;11.004;2023-11-22T07:27:58;13.45;;;6.35;;
83096;SDS011;72968;49.460;11.004;2023-11-22T07:30:30;11.57;;;5.97;;
83096;SDS011;72968;49.460;11.004;2023-11-22T07:33:03;11.95;;;5.80;;
83096;SDS011;72968;49.460;11.004;2023-11-22T07:35:36;11.95;;;5.68;;
83096;SDS011;72968;49.460;11.004;2023-11-22T07:38:08;14.05;;;6.60;;
83096;SDS011;72968;49.460;11.004;2023-11-22T07:40:41;15.73;;;7.13;;
83096;SDS011;72968;49.460;11.004;2023-11-22T07:43:14;10.05;;;5.93;;
83096;SDS011;72968;49.460;11.004;2023-11-22T07:45:45;11.68;;;6.18;;
83096;SDS011;72968;49.460;11.004;2023-11-22T07:48:18;13.02;;;6.82;;
83096;SDS011;72968;49.460;11.004;2023-11-22T07:50:49;13.45;;;6.55;;
83096;SDS011;72968;49.460;11.004;2023-11-22T07:53:22;11.27;;;4.93;;
83096;SDS011;72968;49.460;11.004;2023-11-22T07:55:59;12.30;;;5.95;;
83096;SDS011;72968;49.460;11.004;2023-11-22T07:58:35;13.20;;;6.10;;
83096;SDS011;72968;49.460;11.004;2023-11-22T08:01:07;13.43;;;7.20;;
83096;SDS011;72968;49.460;11.004;2023-11-22T08:03:43;11.57;;;5.63;;
83096;SDS011;72968;49.460;11.004;2023-11-22T08:06:15;10.93;;;5.50;;
83096;SDS011;72968;49.460;11.004;2023-11-22T08:08:47;12.05;;;6.28;;
83096;SDS011;72968;49.460;11.004;2023-11-22T08:11:18;14.25;;;6.05;;
83096;SDS011;72968;49.460;11.004;2023-11-22T08:13:51;10.73;;;5.32;;
83096;SDS011;72968;49.460;11.004;2023-11-22T08:16:25;13.88;;;5.10;;
83096;SDS011;72968;49.460;11.004;2023-11-22T08:18:56;14.38;;;5.78;;
83096;SDS011;72968;49.460;11.004;2023-11-22T08:21:28;11.77;;;6.32;;
83096;SDS011;72968;49.460;11.004;2023-11-22T08:23:59;7.85;;;4.32;;
83096;SDS011;72968;49.460;11.004;2023-11-22T08:26:31;12.32;;;5.78;;
83096;SDS011;72968;49.460;11.004;2023-11-22T08:29:04;10.02;;;5.63;;
83096;SDS011;72968;49.460;11.004;2023-11-22T08:31:35;10.85;;;5.93;;
83096;SDS011;72968;49.460;11.004;2023-11-22T08:34:06;11.63;;;5.15;;
83096;SDS011;72968;49.460;11.004;2023-11-22T08:36:39;10.65;;;5.78;;
83096;SDS011;72968;49.460;11.004;2023-11-22T08:39:10;11.38;;;5.22;;
83096;SDS011;72968;49.460;11.004;2023-11-22T08:41:41;9.95;;;5.05;;
83096;SDS011;72968;49.460;11.004;2023-11-22T08:44:14;8.05;;;4.72;;
83096;SDS011;72968;49.460;11.004;2023-11-22T08:46:45;15.68;;;6.80;;
83096;SDS011;72968;49.460;11.004;2023-11-22T08:49:17;12.02;;;6.78;;
83096;SDS011;72968;49.460;11.004;2023-11-22T08:51:49;12.25;;;7.05;;
83096;SDS011;72968;49.460;11.004;2023-11-22T08:54:21;14.95;;;7.60;;
83096;SDS011;72968;49.460;11.004;2023-11-22T08:56:52;16.80;;;8.30;;
83096;SDS011;72968;49.460;11.004;2023-11-22T08:59:27;16.00;;;8.02;;
83096;SDS011;72968;49.460;11.004;2023-11-22T09:01:59;16.30;;;7.78;;
83096;SDS011;72968;49.460;11.004;2023-11-22T09:04:30;16.58;;;6.50;;
83096;SDS011;72968;49.460;11.004;2023-11-22T09:07:02;11.85;;;6.72;;
83096;SDS011;72968;49.460;11.004;2023-11-22T09:09:33;15.75;;;8.05;;
83096;SDS011;72968;49.460;11.004;2023-11-22T09:12:06;11.23;;;6.68;;
83096;SDS011;72968;49.460;11.004;2023-11-22T09:14:43;13.82;;;6.75;;
83096;SDS011;72968;49.460;11.004;2023-11-22T09:17:15;15.75;;;7.15;;
83096;SDS011;72968;49.460;11.004;2023-11-22T09:19:46;11.63;;;6.45;;
83096;SDS011;72968;49.460;11.004;2023-11-22T09:22:17;10.73;;;5.68;;
83096;SDS011;72968;49.460;11.004;2023-11-22T09:24:49;13.80;;;7.18;;
83096;SDS011;72968;49.460;11.004;2023-11-22T09:27:21;12.30;;;6.30;;
83096;SDS011;72968;49.460;11.004;2023-11-22T09:29:54;10.75;;;5.70;;
83096;SDS011;72968;49.460;11.004;2023-11-22T09:32:25;11.38;;;5.40;;
83096;SDS011;72968;49.460;11.004;2023-11-22T09:34:57;12.68;;;6.00;;
83096;SDS011;72968;49.460;11.004;2023-11-22T09:37:29;9.68;;;4.78;;
83096;SDS011;72968;49.460;11.004;2023-11-22T09:40:01;11.02;;;4.90;;
83096;SDS011;72968;49.460;11.004;2023-11-22T09:42:38;10.70;;;5.03;;
83096;SDS011;72968;49.460;11.004;2023-11-22T09:45:12;9.90;;;4.47;;
83096;SDS011;72968;49.460;11.004;2023-11-22T09:47:48;10.23;;;4.53;;
83096;SDS011;72968;49.460;11.004;2023-11-22T09:50:20;7.38;;;4.32;;
83096;SDS011;72968;49.460;11.004;2023-11-22T09:52:52;10.27;;;4.93;;
83096;SDS011;72968;49.460;11.004;2023-11-22T09:55:27;9.70;;;4.65;;
83096;SDS011;72968;49.460;11.004;2023-11-22T09:57:59;9.10;;;5.18;;
83096;SDS011;72968;49.460;11.004;2023-11-22T10:00:32;8.23;;;5.00;;
83096;SDS011;72968;49.460;11.004;2023-11-22T10:03:03;10.75;;;5.55;;
83096;SDS011;72968;49.460;11.004;2023-11-22T10:05:34;13.82;;;5.68;;
83096;SDS011;72968;49.460;11.004;2023-11-22T10:08:06;11.15;;;5.35;;
83096;SDS011;72968;49.460;11.004;2023-11-22T10:10:39;11.73;;;5.88;;
83096;SDS011;72968;49.460;11.004;2023-11-22T10:13:12;9.27;;;5.15;;
83096;SDS011;72968;49.460;11.004;2023-11-22T10:15:45;9.52;;;5.13;;
83096;SDS011;72968;49.460;11.004;2023-11-22T10:18:18;8.95;;;5.18;;
83096;SDS011;72968;49.460;11.004;2023-11-22T10:20:49;8.32;;;4.93;;
83096;SDS011;72968;49.460;11.004;2023-11-22T10:23:21;10.25;;;4.90;;
83096;SDS011;72968;49.460;11.004;2023-11-22T10:25:54;9.40;;;4.95;;
83096;SDS011;72968;49.460;11.004;2023-11-22T10:28:26;9.45;;;5.05;;
83096;SDS011;72968;49.460;11.004;2023-11-22T10:30:59;9.50;;;4.60;;
83096;SDS011;72968;49.460;11.004;2023-11-22T10:33:30;10.35;;;4.88;;
83096;SDS011;72968;49.460;11.004;2023-11-22T10:36:03;8.38;;;4.97;;
83096;SDS011;72968;49.460;11.004;2023-11-22T10:38:34;10.52;;;4.43;;
83096;SDS011;72968;49.460;11.004;2023-11-22T10:41:06;7.38;;;4.78;;
83096;SDS011;72968;49.460;11.004;2023-11-22T10:43:38;8.95;;;4.78;;
83096;SDS011;72968;49.460;11.004;2023-11-22T10:46:10;12.07;;;5.40;;
83096;SDS011;72968;49.460;11.004;2023-11-22T10:48:43;9.60;;;5.35;;
83096;SDS011;72968;49.460;11.004;2023-11-22T10:51:15;9.50;;;5.03;;
83096;SDS011;72968;49.460;11.004;2023-11-22T10:53:48;9.77;;;5.10;;
83096;SDS011;72968;49.460;11.004;2023-11-22T10:56:19;8.30;;;4.22;;
83096;SDS011;72968;49.460;11.004;2023-11-22T10:58:51;7.07;;;4.35;;
83096;SDS011;72968;49.460;11.004;2023-11-22T11:01:25;8.38;;;5.22;;
83096;SDS011;72968;49.460;11.004;2023-11-22T11:04:01;10.55;;;4.68;;
83096;SDS011;72968;49.460;11.004;2023-11-22T11:06:34;8.57;;;4.57;;
83096;SDS011;72968;49.460;11.004;2023-11-22T11:09:06;7.95;;;4.50;;
83096;SDS011;72968;49.460;11.004;2023-11-22T11:11:38;8.32;;;4.32;;
83096;SDS011;72968;49.460;11.004;2023-11-22T11:14:10;8.65;;;4.82;;
83096;SDS011;72968;49.460;11.004;2023-11-22T11:16:43;9.55;;;4.80;;
83096;SDS011;72968;49.460;11.004;2023-11-22T11:19:18;9.88;;;4.50;;
83096;SDS011;72968;49.460;11.004;2023-11-22T11:21:51;10.07;;;4.78;;
83096;SDS011;72968;49.460;11.004;2023-11-22T11:24:23;6.78;;;4.13;;
83096;SDS011;72968;49.460;11.004;2023-11-22T11:26:54;10.25;;;4.75;;
83096;SDS011;72968;49.460;11.004;2023-11-22T11:29:29;10.38;;;5.95;;
83096;SDS011;72968;49.460;11.004;2023-11-22T11:32:03;8.13;;;4.20;;
83096;SDS011;72968;49.460;11.004;2023-11-22T11:34:37;8.13;;;4.22;;
83096;SDS011;72968;49.460;11.004;2023-11-22T11:37:18;22.02;;;11.02;;
83096;SDS011;72968;49.460;11.004;2023-11-22T11:39:49;12.05;;;6.97;;
83096;SDS011;72968;49.460;11.004;2023-11-22T11:42:20;7.25;;;4.28;;
83096;SDS011;72968;49.460;11.004;2023-11-22T11:45:05;17.20;;;8.65;;
83096;SDS011;72968;49.460;11.004;2023-11-22T11:47:38;11.80;;;6.00;;
83096;SDS011;72968;49.460;11.004;2023-11-22T11:50:09;7.18;;;3.97;;
83096;SDS011;72968;49.460;11.004;2023-11-22T11:52:42;7.13;;;3.30;;
83096;SDS011;72968;49.460;11.004;2023-11-22T11:55:13;8.65;;;5.00;;
83096;SDS011;72968;49.460;11.004;2023-11-22T11:57:45;5.95;;;2.92;;
83096;SDS011;72968;49.460;11.004;2023-11-22T12:00:17;6.95;;;3.30;;
83096;SDS011;72968;49.460;11.004;2023-11-22T12:02:49;8.32;;;4.32;;
83096;SDS011;72968;49.460;11.004;2023-11-22T12:05:21;7.78;;;4.53;;
83096;SDS011;72968;49.460;11.004;2023-11-22T12:07:52;7.18;;;4.05;;
83096;SDS011;72968;49.460;11.004;2023-11-22T12:10:23;7.60;;;4.30;;
83096;SDS011;72968;49.460;11.004;2023-11-22T12:12:55;10.50;;;4.30;;
83096;SDS011;72968;49.460;11.004;2023-11-22T12:15:26;6.85;;;3.88;;
83096;SDS011;72968;49.460;11.004;2023-11-22T12:18:00;8.45;;;4.43;;
83096;SDS011;72968;49.460;11.004;2023-11-22T12:20:32;7.72;;;3.88;;
83096;SDS011;72968;49.460;11.004;2023-11-22T12:23:03;9.38;;;4.95;;
83096;SDS011;72968;49.460;11.004;2023-11-22T12:25:35;7.80;;;4.13;;
83096;SDS011;72968;49.460;11.004;2023-11-22T12:28:06;9.32;;;4.78;;
83096;SDS011;72968;49.460;11.004;2023-11-22T12:30:38;9.00;;;4.30;;
83096;SDS011;72968;49.460;11.004;2023-11-22T12:33:13;8.52;;;4.15;;
83096;SDS011;72968;49.460;11.004;2023-11-22T12:35:47;8.80;;;4.22;;
83096;SDS011;72968;49.460;11.004;2023-11-22T12:38:19;8.80;;;4.05;;
83096;SDS011;72968;49.460;11.004;2023-11-22T12:40:51;7.88;;;4.47;;
83096;SDS011;72968;49.460;11.004;2023-11-22T12:43:22;7.93;;;4.22;;
83096;SDS011;72968;49.460;11.004;2023-11-22T12:45:59;8.02;;;3.80;;
83096;SDS011;72968;49.460;11.004;2023-11-22T12:48:32;10.48;;;5.57;;
83096;SDS011;72968;49.460;11.004;2023-11-22T12:51:14;10.30;;;4.55;;
83096;SDS011;72968;49.460;11.004;2023-11-22T12:53:45;8.88;;;4.47;;
83096;SDS011;72968;49.460;11.004;2023-11-22T12:56:16;7.22;;;4.22;;
83096;SDS011;72968;49.460;11.004;2023-11-22T12:58:48;9.20;;;4.72;;
83096;SDS011;72968;49.460;11.004;2023-11-22T13:01:19;9.02;;;4.38;;
83096;SDS011;72968;49.460;11.004;2023-11-22T13:03:52;8.23;;;4.78;;
83096;SDS011;72968;49.460;11.004;2023-11-22T13:06:23;9.80;;;4.78;;
83096;SDS011;72968;49.460;11.004;2023-11-22T13:08:56;7.22;;;4.30;;
83096;SDS011;72968;49.460;11.004;2023-11-22T13:11:27;8.88;;;4.30;;
83096;SDS011;72968;49.460;11.004;2023-11-22T13:13:58;11.20;;;5.50;;
83096;SDS011;72968;49.460;11.004;2023-11-22T13:16:30;11.07;;;5.38;;
83096;SDS011;72968;49.460;11.004;2023-11-22T13:19:03;8.05;;;4.38;;
83096;SDS011;72968;49.460;11.004;2023-11-22T13:21:35;7.68;;;4.38;;
83096;SDS011;72968;49.460;11.004;2023-11-22T13:24:06;10.13;;;5.05;;
83096;SDS011;72968;49.460;11.004;2023-11-22T13:26:39;8.32;;;4.50;;
83096;SDS011;72968;49.460;11.004;2023-11-22T13:29:10;8.35;;;4.40;;
83096;SDS011;72968;49.460;11.004;2023-11-22T13:31:41;6.40;;;3.80;;
83096;SDS011;72968;49.460;11.004;2023-11-22T13:34:14;7.97;;;4.20;;
83096;SDS011;72968;49.460;11.004;2023-11-22T13:36:46;10.77;;;5.30;;
83096;SDS011;72968;49.460;11.004;2023-11-22T13:39:17;11.82;;;6.55;;
83096;SDS011;72968;49.460;11.004;2023-11-22T13:41:48;7.60;;;4.50;;
83096;SDS011;72968;49.460;11.004;2023-11-22T13:44:20;7.32;;;3.72;;
83096;SDS011;72968;49.460;11.004;2023-11-22T13:46:51;10.50;;;4.57;;
83096;SDS011;72968;49.460;11.004;2023-11-22T13:49:25;8.82;;;5.18;;
83096;SDS011;72968;49.460;11.004;2023-11-22T13:51:56;9.68;;;4.78;;
83096;SDS011;72968;49.460;11.004;2023-11-22T13:54:28;9.00;;;5.07;;
83096;SDS011;72968;49.460;11.004;2023-11-22T13:56:59;9.60;;;4.97;;
83096;SDS011;72968;49.460;11.004;2023-11-22T13:59:30;8.82;;;5.25;;
83096;SDS011;72968;49.460;11.004;2023-11-22T14:02:02;12.00;;;4.65;;
83096;SDS011;72968;49.460;11.004;2023-11-22T14:04:34;11.65;;;6.93;;
83096;SDS011;72968;49.460;11.004;2023-11-22T14:07:06;9.95;;;5.30;;
83096;SDS011;72968;49.460;11.004;2023-11-22T14:09:37;9.60;;;5.32;;
83096;SDS011;72968;49.460;11.004;2023-11-22T14:12:09;7.95;;;4.18;;
83096;SDS011;72968;49.460;11.004;2023-11-22T14:14:40;18.27;;;10.43;;
83096;SDS011;72968;49.460;11.004;2023-11-22T14:17:11;39.45;;;25.17;;
83096;SDS011;72968;49.460;11.004;2023-11-22T14:19:45;32.55;;;19.08;;
83096;SDS011;72968;49.460;11.004;2023-11-22T14:22:16;11.38;;;6.03;;
83096;SDS011;72968;49.460;11.004;2023-11-22T14:24:48;23.27;;;13.10;;
83096;SDS011;72968;49.460;11.004;2023-11-22T14:27:20;9.00;;;5.47;;
83096;SDS011;72968;49.460;11.004;2023-11-22T14:29:51;9.23;;;4.90;;
83096;SDS011;72968;49.460;11.004;2023-11-22T14:32:23;9.82;;;5.38;;
83096;SDS011;72968;49.460;11.004;2023-11-22T14:34:56;8.98;;;6.18;;
83096;SDS011;72968;49.460;11.004;2023-11-22T14:37:28;14.75;;;9.95;;
83096;SDS011;72968;49.460;11.004;2023-11-22T14:39:59;21.27;;;13.15;;
83096;SDS011;72968;49.460;11.004;2023-11-22T14:42:30;11.68;;;7.45;;
83096;SDS011;72968;49.460;11.004;2023-11-22T14:45:02;11.25;;;6.85;;
83096;SDS011;72968;49.460;11.004;2023-11-22T14:47:34;9.85;;;5.75;;
83096;SDS011;72968;49.460;11.004;2023-11-22T14:50:08;21.73;;;19.48;;
83096;SDS011;72968;49.460;11.004;2023-11-22T14:52:41;10.40;;;8.40;;
83096;SDS011;72968;49.460;11.004;2023-11-22T14:55:14;9.32;;;5.60;;
83096;SDS011;72968;49.460;11.004;2023-11-22T14:57:46;10.55;;;5.55;;
83096;SDS011;72968;49.460;11.004;2023-11-22T15:00:17;9.27;;;5.18;;